Time;durP1;ratioP1;P1;durP2;ratioP2;P2;SDS_P1;SDS_P2;PMS_P1;PMS_P2;Temp;Humidity;BMP_temperature;BMP_pressure;BME280_temperature;BME280_humidity;BME280_pressure;Samples;Min_cycle;Max_cycle;Signal;HPM_P1;HPM_P2
2024/02/27 00:01:17;;;;;;;2.50;1.90;;;;;;;;;;5011286;28;20037;-67
2024/02/27 00:03:42;;;;;;;2.88;2.13;;;;;;;;;;5019163;28;20025;-64
2024/02/27 00:06:07;;;;;;;2.95;2.20;;;;;;;;;;5024900;28;20034;-70
2024/02/27 00:08:33;;;;;;;3.00;2.10;;;;;;;;;;5011008;28;20100;-67
2024/02/27 00:11:00;;;;;;;3.67;2.10;;;;;;;;;;5005129;28;20030;-64
2024/02/27 00:13:25;;;;;;;3.22;2.00;;;;;;;;;;5011202;28;20100;-64
2024/02/27 00:15:50;;;;;;;3.05;2.22;;;;;;;;;;5011819;28;20030;-62
2024/02/27 00:18:16;;;;;;;2.88;2.13;;;;;;;;;;4998692;28;20093;-62
2024/02/27 00:20:42;;;;;;;2.67;1.80;;;;;;;;;;5011427;28;20044;-65
2024/02/27 00:23:14;;;;;;;4.63;2.00;;;;;;;;;;5011103;28;20026;-63
2024/02/27 00:25:39;;;;;;;2.95;2.20;;;;;;;;;;5011150;28;20426;-66
2024/02/27 00:28:05;;;;;;;2.97;2.10;;;;;;;;;;5009734;28;20041;-61
2024/02/27 00:30:30;;;;;;;2.65;2.03;;;;;;;;;;5011518;28;20038;-62
2024/02/27 00:32:55;;;;;;;2.38;1.88;;;;;;;;;;5009855;28;20480;-61
2024/02/27 00:35:21;;;;;;;3.70;2.35;;;;;;;;;;5028058;28;20038;-62
2024/02/27 00:37:46;;;;;;;3.55;2.35;;;;;;;;;;5017986;28;20034;-61
2024/02/27 00:40:12;;;;;;;3.67;2.25;;;;;;;;;;5010634;28;20100;-63
2024/02/27 00:42:37;;;;;;;3.08;2.20;;;;;;;;;;5010524;28;20030;-68
2024/02/27 00:45:03;;;;;;;3.70;2.28;;;;;;;;;;5009463;28;20096;-61
2024/02/27 00:47:28;;;;;;;2.97;2.00;;;;;;;;;;5010677;28;20060;-67
2024/02/27 00:49:54;;;;;;;3.05;2.25;;;;;;;;;;5014548;28;20061;-61
2024/02/27 00:52:19;;;;;;;3.50;2.38;;;;;;;;;;5016821;28;20129;-63
2024/02/27 00:54:44;;;;;;;3.40;1.92;;;;;;;;;;5012923;28;20094;-67
2024/02/27 00:57:10;;;;;;;2.83;2.10;;;;;;;;;;4998391;28;20455;-60
2024/02/27 00:59:35;;;;;;;3.13;2.00;;;;;;;;;;5010211;28;20033;-73
2024/02/27 01:02:00;;;;;;;4.03;2.50;;;;;;;;;;5009229;28;20073;-60
2024/02/27 01:04:26;;;;;;;2.92;2.30;;;;;;;;;;5009383;28;20045;-65
2024/02/27 01:06:51;;;;;;;2.88;2.15;;;;;;;;;;5007836;28;20038;-66
2024/02/27 01:09:16;;;;;;;2.45;2.15;;;;;;;;;;5006541;28;20470;-59
2024/02/27 01:11:42;;;;;;;2.50;2.10;;;;;;;;;;5008538;28;20041;-60
2024/02/27 01:14:07;;;;;;;3.80;2.38;;;;;;;;;;5003729;28;20049;-61
2024/02/27 01:16:32;;;;;;;3.13;2.60;;;;;;;;;;5003536;28;20040;-65
2024/02/27 01:18:58;;;;;;;3.40;2.40;;;;;;;;;;5006862;28;20038;-70
2024/02/27 01:21:23;;;;;;;2.97;2.05;;;;;;;;;;5009812;28;20423;-66
2024/02/27 01:23:48;;;;;;;3.53;2.50;;;;;;;;;;5011056;28;20038;-62
2024/02/27 01:26:14;;;;;;;2.90;2.25;;;;;;;;;;5007985;28;20048;-62
2024/02/27 01:28:40;;;;;;;2.78;2.10;;;;;;;;;;5009358;28;20495;-65
2024/02/27 01:31:05;;;;;;;3.53;2.33;;;;;;;;;;5011952;28;21347;-60
2024/02/27 01:33:31;;;;;;;3.08;2.22;;;;;;;;;;5029032;28;20127;-67
2024/02/27 01:35:56;;;;;;;3.42;2.65;;;;;;;;;;5011843;28;20045;-70
2024/02/27 01:38:21;;;;;;;2.55;2.10;;;;;;;;;;5009616;28;20554;-64
2024/02/27 01:40:53;;;;;;;4.25;2.30;;;;;;;;;;5010542;28;20041;-60
2024/02/27 01:43:21;;;;;;;3.30;2.47;;;;;;;;;;5009441;28;20037;-58
2024/02/27 01:45:47;;;;;;;2.80;2.15;;;;;;;;;;5008272;28;20066;-61
2024/02/27 01:48:12;;;;;;;3.22;2.40;;;;;;;;;;5029174;28;20040;-61
2024/02/27 01:50:37;;;;;;;3.75;2.67;;;;;;;;;;5011920;28;20045;-62
2024/02/27 01:53:03;;;;;;;3.10;2.25;;;;;;;;;;5008615;28;20068;-62
2024/02/27 01:55:28;;;;;;;3.50;2.45;;;;;;;;;;5001258;28;20526;-64
2024/02/27 01:57:54;;;;;;;3.08;2.33;;;;;;;;;;5006837;28;20755;-61
2024/02/27 02:00:20;;;;;;;2.83;2.40;;;;;;;;;;5009955;28;20026;-65
2024/02/27 02:02:45;;;;;;;3.55;2.35;;;;;;;;;;5007141;28;20049;-61
2024/02/27 02:05:11;;;;;;;2.80;2.40;;;;;;;;;;4996527;28;20034;-65
2024/02/27 02:07:38;;;;;;;3.13;2.40;;;;;;;;;;5009188;28;20034;-70
2024/02/27 02:10:10;;;;;;;2.92;2.63;;;;;;;;;;5009537;28;20487;-65
2024/02/27 02:12:36;;;;;;;3.38;2.35;;;;;;;;;;5007570;28;20046;-61
2024/02/27 02:15:03;;;;;;;2.92;2.45;;;;;;;;;;5005616;28;20034;-66
2024/02/27 02:17:29;;;;;;;3.42;2.50;;;;;;;;;;5008165;28;20042;-61
2024/02/27 02:19:54;;;;;;;3.03;2.20;;;;;;;;;;5006494;28;20037;-66
2024/02/27 02:22:20;;;;;;;3.25;2.50;;;;;;;;;;5009519;28;20463;-72
2024/02/27 02:24:45;;;;;;;3.88;2.38;;;;;;;;;;5006457;28;20071;-61
2024/02/27 02:27:11;;;;;;;3.17;2.35;;;;;;;;;;5011843;28;20065;-67
2024/02/27 02:29:36;;;;;;;3.72;2.42;;;;;;;;;;5008937;28;20029;-60
2024/02/27 02:32:03;;;;;;;3.65;2.88;;;;;;;;;;5007101;28;20046;-61
2024/02/27 02:34:28;;;;;;;4.20;2.40;;;;;;;;;;5009562;28;20325;-60
2024/02/27 02:36:53;;;;;;;2.92;2.33;;;;;;;;;;5007132;28;20158;-64
2024/02/27 02:39:24;;;;;;;3.78;2.83;;;;;;;;;;5007386;28;20510;-63
2024/02/27 02:41:50;;;;;;;3.28;2.72;;;;;;;;;;5008821;28;20045;-61
2024/02/27 02:44:15;;;;;;;3.53;2.63;;;;;;;;;;5006989;28;20041;-61
2024/02/27 02:46:42;;;;;;;3.40;2.30;;;;;;;;;;5024176;28;20030;-62
2024/02/27 02:49:07;;;;;;;3.22;2.45;;;;;;;;;;5006846;28;20069;-66
2024/02/27 02:51:33;;;;;;;3.95;3.00;;;;;;;;;;5009098;28;20134;-61
2024/02/27 02:53:59;;;;;;;3.42;2.38;;;;;;;;;;5005894;28;20481;-61
2024/02/27 02:56:27;;;;;;;4.15;2.85;;;;;;;;;;5006752;28;20042;-69
2024/02/27 02:58:53;;;;;;;3.30;2.60;;;;;;;;;;5009416;28;20033;-65
2024/02/27 03:01:18;;;;;;;3.95;2.92;;;;;;;;;;5009826;28;20034;-61
2024/02/27 03:03:44;;;;;;;3.35;2.40;;;;;;;;;;5020613;28;20077;-65
2024/02/27 03:06:09;;;;;;;3.70;2.80;;;;;;;;;;5007292;28;20034;-63
2024/02/27 03:08:35;;;;;;;3.47;2.70;;;;;;;;;;5007654;28;20042;-64
2024/02/27 03:11:00;;;;;;;4.53;2.88;;;;;;;;;;4999970;28;20046;-65
2024/02/27 03:13:26;;;;;;;3.60;2.80;;;;;;;;;;5026629;28;20205;-65
2024/02/27 03:15:51;;;;;;;3.33;2.60;;;;;;;;;;5018482;28;20462;-71
2024/02/27 03:18:16;;;;;;;3.67;2.65;;;;;;;;;;5009938;28;20042;-66
2024/02/27 03:20:44;;;;;;;3.40;2.80;;;;;;;;;;5008902;28;20033;-62
2024/02/27 03:23:10;;;;;;;3.92;2.58;;;;;;;;;;5008120;28;20034;-67
2024/02/27 03:25:36;;;;;;;3.60;2.78;;;;;;;;;;5013407;28;20029;-65
2024/02/27 03:28:02;;;;;;;3.45;2.80;;;;;;;;;;5008773;28;20045;-63
2024/02/27 03:30:27;;;;;;;3.25;2.50;;;;;;;;;;5008515;28;20026;-61
2024/02/27 03:32:52;;;;;;;3.55;2.85;;;;;;;;;;5008870;28;20038;-61
2024/02/27 03:35:18;;;;;;;3.80;2.70;;;;;;;;;;5008254;28;20045;-68
2024/02/27 03:37:44;;;;;;;3.83;2.72;;;;;;;;;;5011654;28;20038;-63
2024/02/27 03:40:09;;;;;;;3.17;2.40;;;;;;;;;;5010744;28;20273;-67
2024/02/27 03:42:35;;;;;;;5.68;2.80;;;;;;;;;;5007314;28;20117;-61
2024/02/27 03:45:00;;;;;;;3.75;2.88;;;;;;;;;;5017203;28;20536;-66
2024/02/27 03:47:25;;;;;;;4.00;2.78;;;;;;;;;;5033321;28;20033;-69
2024/02/27 03:49:51;;;;;;;3.60;2.83;;;;;;;;;;5031717;28;20040;-62
2024/02/27 03:52:16;;;;;;;4.88;3.10;;;;;;;;;;5012570;28;20060;-65
2024/02/27 03:54:42;;;;;;;5.45;2.80;;;;;;;;;;5010348;28;20063;-61
2024/02/27 03:57:09;;;;;;;3.97;2.90;;;;;;;;;;5012065;28;20040;-71
2024/02/27 03:59:35;;;;;;;3.65;2.92;;;;;;;;;;5011447;28;20475;-60
2024/02/27 04:02:00;;;;;;;3.95;2.58;;;;;;;;;;5004958;28;20057;-62
2024/02/27 04:04:25;;;;;;;4.78;3.13;;;;;;;;;;5011760;28;20025;-62
2024/02/27 04:06:51;;;;;;;4.38;3.00;;;;;;;;;;5012160;28;20034;-60
2024/02/27 04:09:16;;;;;;;4.30;3.00;;;;;;;;;;5016706;28;20022;-65
2024/02/27 04:11:41;;;;;;;4.07;3.20;;;;;;;;;;5016468;28;20054;-61
2024/02/27 04:14:09;;;;;;;4.20;2.92;;;;;;;;;;5011961;28;20038;-61
2024/02/27 04:16:35;;;;;;;3.92;3.03;;;;;;;;;;5007209;28;20037;-65
2024/02/27 04:19:01;;;;;;;4.63;3.25;;;;;;;;;;5004750;28;20034;-61
2024/02/27 04:21:26;;;;;;;3.20;2.58;;;;;;;;;;5011634;28;20096;-66
2024/02/27 04:23:52;;;;;;;3.22;2.70;;;;;;;;;;5009305;28;20045;-72
2024/02/27 04:26:17;;;;;;;4.00;2.95;;;;;;;;;;5013622;28;20030;-64
2024/02/27 04:28:42;;;;;;;3.70;2.95;;;;;;;;;;5009491;28;20037;-69
2024/02/27 04:31:08;;;;;;;4.07;3.35;;;;;;;;;;5014927;28;20041;-67
2024/02/27 04:33:33;;;;;;;4.22;2.97;;;;;;;;;;5011639;28;20049;-64
2024/02/27 04:35:59;;;;;;;4.80;3.10;;;;;;;;;;5005185;28;20124;-63
2024/02/27 04:38:24;;;;;;;4.13;3.00;;;;;;;;;;5021820;28;20526;-60
2024/02/27 04:40:49;;;;;;;3.30;2.83;;;;;;;;;;5006132;28;20041;-62
2024/02/27 04:43:14;;;;;;;4.05;3.03;;;;;;;;;;5007634;28;20042;-62
2024/02/27 04:45:40;;;;;;;3.92;2.80;;;;;;;;;;5026045;28;20105;-67
2024/02/27 04:48:06;;;;;;;3.70;3.03;;;;;;;;;;5010583;28;20077;-71
2024/02/27 04:50:32;;;;;;;3.30;2.65;;;;;;;;;;5007344;28;20052;-59
2024/02/27 04:52:58;;;;;;;3.47;2.70;;;;;;;;;;5005766;28;20128;-66
2024/02/27 04:55:29;;;;;;;3.28;2.70;;;;;;;;;;5006441;28;20059;-64
2024/02/27 04:57:54;;;;;;;4.22;3.17;;;;;;;;;;5018024;28;20037;-64
2024/02/27 05:00:20;;;;;;;4.13;3.10;;;;;;;;;;5003810;28;20030;-63
2024/02/27 05:02:45;;;;;;;5.15;2.97;;;;;;;;;;5003187;28;20088;-65
2024/02/27 05:05:11;;;;;;;3.03;2.55;;;;;;;;;;5016500;28;20586;-67
2024/02/27 05:07:36;;;;;;;4.28;3.20;;;;;;;;;;5003653;28;20065;-62
2024/02/27 05:10:01;;;;;;;4.68;3.20;;;;;;;;;;5001171;28;20039;-70
2024/02/27 05:12:27;;;;;;;4.60;3.13;;;;;;;;;;5008564;28;20045;-62
2024/02/27 05:14:52;;;;;;;3.42;2.88;;;;;;;;;;5010091;28;20037;-67
2024/02/27 05:17:17;;;;;;;4.15;2.72;;;;;;;;;;5008672;28;20069;-61
2024/02/27 05:19:42;;;;;;;3.97;3.03;;;;;;;;;;5007421;28;20033;-67
2024/02/27 05:22:08;;;;;;;4.30;3.05;;;;;;;;;;5005099;28;20042;-66
2024/02/27 05:24:34;;;;;;;5.47;3.25;;;;;;;;;;5006203;28;20029;-64
2024/02/27 05:26:59;;;;;;;3.45;2.75;;;;;;;;;;5008575;28;20041;-67
2024/02/27 05:29:24;;;;;;;3.47;2.70;;;;;;;;;;5000872;28;20031;-61
2024/02/27 05:31:50;;;;;;;4.35;3.05;;;;;;;;;;5002176;28;20480;-63
2024/02/27 05:34:15;;;;;;;5.70;3.08;;;;;;;;;;4998457;28;20042;-61
2024/02/27 05:36:41;;;;;;;5.18;3.05;;;;;;;;;;4990379;28;20133;-69
2024/02/27 05:39:06;;;;;;;3.75;3.05;;;;;;;;;;5009103;28;20038;-60
2024/02/27 05:41:31;;;;;;;4.07;2.92;;;;;;;;;;5001692;28;20034;-64
2024/02/27 05:43:57;;;;;;;3.50;3.00;;;;;;;;;;4997678;28;20096;-61
2024/02/27 05:46:23;;;;;;;5.32;3.13;;;;;;;;;;5004510;28;20038;-66
2024/02/27 05:48:49;;;;;;;4.25;2.70;;;;;;;;;;5004275;28;20053;-69
2024/02/27 05:51:15;;;;;;;4.43;3.20;;;;;;;;;;4998464;28;20061;-60
2024/02/27 05:53:40;;;;;;;4.53;3.17;;;;;;;;;;5002189;28;20427;-63
2024/02/27 05:56:06;;;;;;;3.88;2.80;;;;;;;;;;4998940;28;20030;-63
2024/02/27 05:58:31;;;;;;;4.28;2.95;;;;;;;;;;5006101;28;20044;-63
2024/02/27 06:01:02;;;;;;;5.10;3.05;;;;;;;;;;5005117;28;20104;-60
2024/02/27 06:03:27;;;;;;;2.85;2.53;;;;;;;;;;4998604;28;20042;-59
2024/02/27 06:05:53;;;;;;;5.22;3.20;;;;;;;;;;5004995;28;20048;-63
2024/02/27 06:08:25;;;;;;;3.85;2.85;;;;;;;;;;5006454;28;20030;-60
2024/02/27 06:10:50;;;;;;;4.05;3.00;;;;;;;;;;5002423;28;20062;-59
2024/02/27 06:13:15;;;;;;;4.32;3.13;;;;;;;;;;5004994;28;20080;-65
2024/02/27 06:15:41;;;;;;;3.80;2.80;;;;;;;;;;4993559;28;20116;-63
2024/02/27 06:18:15;;;;;;;3.50;2.97;;;;;;;;;;5003749;28;20744;-60
2024/02/27 06:23:27;;;;;;;3.70;2.80;;;;;;;;;;4997436;28;20053;-59
2024/02/27 06:25:53;;;;;;;3.78;2.70;;;;;;;;;;5001747;28;20026;-60
2024/02/27 06:28:18;;;;;;;3.60;2.90;;;;;;;;;;5001359;28;20029;-60
2024/02/27 06:30:43;;;;;;;3.50;2.97;;;;;;;;;;5001410;28;20038;-60
2024/02/27 06:33:09;;;;;;;5.53;3.17;;;;;;;;;;5003869;28;20053;-62
2024/02/27 06:35:35;;;;;;;4.18;3.00;;;;;;;;;;5004376;28;20026;-67
2024/02/27 06:38:00;;;;;;;4.88;2.88;;;;;;;;;;4995980;28;20045;-65
2024/02/27 06:40:25;;;;;;;4.40;2.83;;;;;;;;;;5011781;28;20041;-58
2024/02/27 06:42:51;;;;;;;4.03;3.20;;;;;;;;;;4994865;28;20105;-60
2024/02/27 06:45:17;;;;;;;4.93;3.25;;;;;;;;;;4999318;28;20106;-64
2024/02/27 06:47:43;;;;;;;4.20;3.10;;;;;;;;;;4999193;28;20054;-60
2024/02/27 06:50:09;;;;;;;4.80;3.15;;;;;;;;;;5004750;28;20072;-66
2024/02/27 06:52:35;;;;;;;4.30;3.40;;;;;;;;;;5008606;28;20037;-61
2024/02/27 06:55:00;;;;;;;4.80;3.50;;;;;;;;;;4996285;28;20045;-63
2024/02/27 06:57:29;;;;;;;5.43;3.30;;;;;;;;;;5009660;28;20038;-60
2024/02/27 06:59:54;;;;;;;4.40;2.90;;;;;;;;;;4997086;28;20044;-65
2024/02/27 07:02:20;;;;;;;4.20;3.20;;;;;;;;;;4999497;28;20494;-60
2024/02/27 07:04:45;;;;;;;4.43;3.22;;;;;;;;;;5006594;28;20034;-59
2024/02/27 07:07:10;;;;;;;4.15;3.08;;;;;;;;;;5000783;28;20033;-63
2024/02/27 07:09:38;;;;;;;4.05;3.28;;;;;;;;;;4995163;28;20139;-64
2024/02/27 07:12:04;;;;;;;8.00;3.05;;;;;;;;;;4996497;28;20050;-60
2024/02/27 07:14:31;;;;;;;5.10;3.40;;;;;;;;;;5003766;28;20041;-59
2024/02/27 07:16:56;;;;;;;4.88;3.05;;;;;;;;;;4996207;28;20042;-59
2024/02/27 07:19:22;;;;;;;3.60;3.20;;;;;;;;;;4995516;28;20026;-64
2024/02/27 07:21:48;;;;;;;5.18;3.50;;;;;;;;;;5001395;28;20038;-61
2024/02/27 07:24:13;;;;;;;5.00;3.03;;;;;;;;;;5005553;28;20104;-61
2024/02/27 07:26:44;;;;;;;4.43;3.17;;;;;;;;;;5002742;28;20035;-59
2024/02/27 07:29:11;;;;;;;5.75;2.97;;;;;;;;;;4996513;28;20042;-62
2024/02/27 07:31:36;;;;;;;4.43;3.20;;;;;;;;;;4995688;28;20037;-64
2024/02/27 07:34:03;;;;;;;4.13;2.85;;;;;;;;;;5001163;28;20514;-59
2024/02/27 07:36:28;;;;;;;4.90;3.05;;;;;;;;;;4999847;28;20079;-59
2024/02/27 07:38:54;;;;;;;4.35;3.10;;;;;;;;;;4997627;28;20038;-60
2024/02/27 07:41:19;;;;;;;4.82;2.88;;;;;;;;;;4997185;28;20092;-60
2024/02/27 07:43:47;;;;;;;4.32;2.97;;;;;;;;;;5002617;28;20135;-60
2024/02/27 07:46:16;;;;;;;4.10;2.72;;;;;;;;;;4998454;28;20034;-61
2024/02/27 07:48:44;;;;;;;4.30;3.10;;;;;;;;;;5000604;28;20033;-61
2024/02/27 07:51:26;;;;;;;4.30;3.30;;;;;;;;;;5001458;28;20061;-61
2024/02/27 07:53:55;;;;;;;5.47;2.92;;;;;;;;;;4999587;28;20075;-67
2024/02/27 07:56:20;;;;;;;5.28;2.95;;;;;;;;;;4997898;28;20114;-62
2024/02/27 07:58:46;;;;;;;4.47;3.30;;;;;;;;;;4997345;28;20097;-62
2024/02/27 08:01:11;;;;;;;4.35;3.13;;;;;;;;;;4996259;28;20026;-69
2024/02/27 08:03:36;;;;;;;5.07;3.63;;;;;;;;;;4998358;28;20036;-64
2024/02/27 08:06:07;;;;;;;4.53;3.10;;;;;;;;;;5006037;28;20242;-62
2024/02/27 08:08:33;;;;;;;5.30;3.85;;;;;;;;;;5003207;28;20046;-62
2024/02/27 08:10:58;;;;;;;5.22;3.47;;;;;;;;;;5003022;28;20037;-71
2024/02/27 08:13:24;;;;;;;4.10;3.03;;;;;;;;;;4997249;28;20045;-68
2024/02/27 08:15:50;;;;;;;4.18;3.38;;;;;;;;;;5000500;28;20467;-63
2024/02/27 08:18:15;;;;;;;4.85;3.60;;;;;;;;;;5002164;28;20056;-62
2024/02/27 08:20:40;;;;;;;4.88;3.42;;;;;;;;;;5000171;28;20040;-62
2024/02/27 08:23:15;;;;;;;4.82;3.50;;;;;;;;;;5002701;28;20383;-66
2024/02/27 08:25:40;;;;;;;6.10;3.47;;;;;;;;;;5003012;28;20116;-61
2024/02/27 08:28:06;;;;;;;5.13;3.60;;;;;;;;;;5009637;28;20132;-62
2024/02/27 08:30:32;;;;;;;4.47;3.47;;;;;;;;;;5007250;28;20037;-62
2024/02/27 08:32:57;;;;;;;3.70;3.30;;;;;;;;;;5004901;28;20590;-61
2024/02/27 08:35:23;;;;;;;5.47;3.30;;;;;;;;;;5004284;28;20053;-61
2024/02/27 08:37:48;;;;;;;5.68;3.55;;;;;;;;;;5006863;28;20043;-61
2024/02/27 08:40:20;;;;;;;5.38;3.53;;;;;;;;;;5005780;28;20042;-65
2024/02/27 08:42:45;;;;;;;3.95;2.97;;;;;;;;;;5007231;28;20041;-62
2024/02/27 08:45:11;;;;;;;4.72;3.58;;;;;;;;;;5001079;28;20507;-64
2024/02/27 08:47:36;;;;;;;4.07;3.28;;;;;;;;;;5005800;28;20094;-64
2024/02/27 08:50:03;;;;;;;5.00;3.70;;;;;;;;;;4997569;28;20120;-63
2024/02/27 08:52:28;;;;;;;4.60;3.60;;;;;;;;;;5008183;28;20050;-63
2024/02/27 08:54:54;;;;;;;5.03;3.67;;;;;;;;;;5006722;28;20798;-61
2024/02/27 08:57:19;;;;;;;4.65;3.50;;;;;;;;;;5006377;28;20034;-68
2024/02/27 08:59:46;;;;;;;5.47;3.50;;;;;;;;;;5007089;28;20041;-61
2024/02/27 09:02:11;;;;;;;5.00;3.22;;;;;;;;;;5000634;28;20049;-68
2024/02/27 09:04:37;;;;;;;4.70;3.40;;;;;;;;;;5003996;28;20194;-62
2024/02/27 09:07:02;;;;;;;4.60;3.50;;;;;;;;;;5000630;28;20518;-71
2024/02/27 09:09:37;;;;;;;5.55;3.63;;;;;;;;;;5000793;28;20616;-63
2024/02/27 09:12:05;;;;;;;4.78;3.70;;;;;;;;;;4999545;28;20074;-60
2024/02/27 09:14:39;;;;;;;5.18;3.47;;;;;;;;;;4997832;28;20037;-66
2024/02/27 09:17:05;;;;;;;5.38;3.60;;;;;;;;;;4996410;28;20125;-61
2024/02/27 09:19:30;;;;;;;4.68;3.50;;;;;;;;;;4995824;28;20208;-66
2024/02/27 09:21:55;;;;;;;4.60;3.67;;;;;;;;;;5000268;28;20215;-61
2024/02/27 09:24:21;;;;;;;4.93;3.28;;;;;;;;;;5001384;28;20581;-60
2024/02/27 09:26:46;;;;;;;4.90;3.60;;;;;;;;;;5005126;28;20038;-64
2024/02/27 09:29:13;;;;;;;5.57;3.67;;;;;;;;;;5000476;28;20561;-61
2024/02/27 09:31:38;;;;;;;4.90;3.72;;;;;;;;;;5003456;28;20044;-71
2024/02/27 09:34:04;;;;;;;4.50;3.45;;;;;;;;;;5005410;28;20581;-61
2024/02/27 09:36:29;;;;;;;5.03;3.78;;;;;;;;;;5006519;28;20026;-65
2024/02/27 09:38:54;;;;;;;5.18;3.63;;;;;;;;;;5006987;28;20842;-61
2024/02/27 09:41:40;;;;;;;6.72;3.45;;;;;;;;;;5005333;28;20456;-69
2024/02/27 09:44:06;;;;;;;6.43;4.10;;;;;;;;;;4977310;28;20045;-61
2024/02/27 09:46:31;;;;;;;6.65;4.95;;;;;;;;;;4990516;28;20038;-65
2024/02/27 09:48:56;;;;;;;7.25;5.35;;;;;;;;;;5006416;28;20084;-67
2024/02/27 09:51:22;;;;;;;8.68;5.97;;;;;;;;;;5012877;28;20045;-62
2024/02/27 09:53:48;;;;;;;8.65;5.65;;;;;;;;;;5002319;28;20179;-66
2024/02/27 09:56:15;;;;;;;7.82;5.85;;;;;;;;;;5000597;28;20033;-68
2024/02/27 09:58:43;;;;;;;10.13;6.32;;;;;;;;;;5000920;28;20033;-67
2024/02/27 10:01:10;;;;;;;8.23;5.25;;;;;;;;;;5001540;28;20456;-61
2024/02/27 10:03:35;;;;;;;8.70;5.78;;;;;;;;;;5011571;28;20071;-62
2024/02/27 10:06:01;;;;;;;8.90;5.25;;;;;;;;;;5004792;28;20653;-67
2024/02/27 10:08:28;;;;;;;9.57;4.82;;;;;;;;;;5003848;28;20380;-62
2024/02/27 10:10:53;;;;;;;8.00;4.57;;;;;;;;;;4999522;28;20041;-62
2024/02/27 10:13:18;;;;;;;5.35;4.40;;;;;;;;;;4999241;28;20045;-62
2024/02/27 10:15:44;;;;;;;6.05;4.45;;;;;;;;;;4995894;28;20046;-63
2024/02/27 10:18:09;;;;;;;6.78;4.65;;;;;;;;;;5007016;28;20468;-62
2024/02/27 10:20:35;;;;;;;6.70;4.50;;;;;;;;;;5002514;28;20239;-62
2024/02/27 10:23:01;;;;;;;4.95;4.28;;;;;;;;;;4999880;28;20124;-62
2024/02/27 10:25:27;;;;;;;7.15;4.60;;;;;;;;;;5003840;28;20030;-64
2024/02/27 10:27:53;;;;;;;7.55;4.03;;;;;;;;;;5004492;28;20495;-61
2024/02/27 10:30:19;;;;;;;6.07;4.10;;;;;;;;;;4997667;28;20484;-65
2024/02/27 10:32:45;;;;;;;7.82;4.60;;;;;;;;;;4997593;28;20045;-61
2024/02/27 10:35:13;;;;;;;9.32;4.95;;;;;;;;;;5005711;28;20056;-64
2024/02/27 10:37:38;;;;;;;8.02;4.72;;;;;;;;;;4998061;28;20042;-67
2024/02/27 10:40:07;;;;;;;9.23;5.82;;;;;;;;;;5008830;28;20120;-61
2024/02/27 10:42:32;;;;;;;9.55;5.05;;;;;;;;;;5007738;28;20043;-65
2024/02/27 10:44:57;;;;;;;10.68;4.75;;;;;;;;;;5004526;28;20105;-63
2024/02/27 10:47:26;;;;;;;7.03;4.85;;;;;;;;;;5014365;28;20058;-67
2024/02/27 10:49:52;;;;;;;8.57;5.35;;;;;;;;;;5000388;28;20483;-62
2024/02/27 10:52:17;;;;;;;7.70;4.75;;;;;;;;;;5000884;28;20408;-68
2024/02/27 10:54:43;;;;;;;7.35;4.72;;;;;;;;;;5003740;28;20049;-63
2024/02/27 10:57:09;;;;;;;9.02;4.57;;;;;;;;;;5003963;28;20038;-64
2024/02/27 10:59:34;;;;;;;9.48;5.18;;;;;;;;;;5002730;28;20041;-65
2024/02/27 11:01:59;;;;;;;7.00;4.88;;;;;;;;;;5001164;28;20038;-65
2024/02/27 11:04:32;;;;;;;8.63;4.70;;;;;;;;;;5000040;28;20045;-68
2024/02/27 11:06:58;;;;;;;8.07;4.57;;;;;;;;;;4999247;28;20034;-64
2024/02/27 11:09:26;;;;;;;6.15;4.40;;;;;;;;;;5003566;28;20033;-64
2024/02/27 11:11:53;;;;;;;10.55;5.28;;;;;;;;;;5005453;28;20066;-67
2024/02/27 11:14:18;;;;;;;9.00;5.68;;;;;;;;;;5009454;28;20029;-62
2024/02/27 11:16:45;;;;;;;10.25;5.22;;;;;;;;;;5002959;28;20037;-63
2024/02/27 11:19:12;;;;;;;7.95;5.18;;;;;;;;;;5000435;28;20030;-64
2024/02/27 11:21:38;;;;;;;8.85;4.85;;;;;;;;;;4989307;28;20037;-66
2024/02/27 11:24:04;;;;;;;12.60;5.97;;;;;;;;;;5002493;28;20033;-64
2024/02/27 11:26:29;;;;;;;8.48;5.10;;;;;;;;;;5000651;28;20026;-63
2024/02/27 11:28:55;;;;;;;7.95;5.18;;;;;;;;;;4997440;28;20061;-61
2024/02/27 11:31:21;;;;;;;8.40;5.28;;;;;;;;;;4993040;28;20014;-65
2024/02/27 11:33:52;;;;;;;12.70;5.53;;;;;;;;;;5006079;28;20100;-63
2024/02/27 11:36:17;;;;;;;9.50;5.78;;;;;;;;;;4999877;28;20037;-68
2024/02/27 11:38:52;;;;;;;8.38;4.65;;;;;;;;;;5010653;28;20414;-76
2024/02/27 11:41:17;;;;;;;10.52;5.57;;;;;;;;;;4996505;28;20038;-71
2024/02/27 11:43:53;;;;;;;10.82;5.50;;;;;;;;;;5005455;28;20044;-69
2024/02/27 11:46:30;;;;;;;9.88;5.28;;;;;;;;;;4997194;28;20416;-71
2024/02/27 11:48:56;;;;;;;7.57;4.72;;;;;;;;;;4991085;28;20054;-70
2024/02/27 11:51:32;;;;;;;7.65;5.00;;;;;;;;;;5002075;28;20060;-72
2024/02/27 11:53:57;;;;;;;9.45;5.20;;;;;;;;;;5001782;28;20180;-69
2024/02/27 11:56:28;;;;;;;9.90;4.78;;;;;;;;;;5003597;28;20191;-71
2024/02/27 11:58:57;;;;;;;8.10;5.25;;;;;;;;;;5007695;28;20812;-71
2024/02/27 12:01:22;;;;;;;8.65;5.05;;;;;;;;;;5009390;28;20049;-71
2024/02/27 12:03:56;;;;;;;8.88;4.65;;;;;;;;;;4985450;28;20060;-70
2024/02/27 12:06:21;;;;;;;11.25;5.55;;;;;;;;;;5011739;23;20042;-70
2024/02/27 12:08:47;;;;;;;10.30;5.05;;;;;;;;;;4991407;28;20173;-73
2024/02/27 12:11:14;;;;;;;10.52;4.82;;;;;;;;;;4967081;28;20089;-71
2024/02/27 12:13:40;;;;;;;10.65;5.68;;;;;;;;;;4976868;28;20110;-71
2024/02/27 12:16:08;;;;;;;8.32;4.90;;;;;;;;;;4986105;28;20121;-69
2024/02/27 12:18:33;;;;;;;8.93;5.35;;;;;;;;;;4988208;28;20073;-68
2024/02/27 12:21:00;;;;;;;9.10;4.80;;;;;;;;;;4989424;28;20034;-69
2024/02/27 12:23:27;;;;;;;8.27;4.88;;;;;;;;;;4985973;28;20112;-68
2024/02/27 12:25:53;;;;;;;10.65;5.00;;;;;;;;;;4988000;28;20121;-69
2024/02/27 12:28:19;;;;;;;7.93;5.15;;;;;;;;;;4988860;28;20039;-68
2024/02/27 12:31:06;;;;;;;;;;;;;;;;;;;;;
2024/02/27 12:33:52;;;;;;;11.75;5.40;;;;;;;;;;4984374;28;20046;-70
2024/02/27 12:36:20;;;;;;;8.77;5.10;;;;;;;;;;4981428;28;20155;-69
2024/02/27 12:39:12;;;;;;;13.93;5.38;;;;;;;;;;4987266;28;20117;-72
2024/02/27 12:41:43;;;;;;;7.80;4.72;;;;;;;;;;4975694;28;20139;-72
2024/02/27 12:44:09;;;;;;;9.57;5.30;;;;;;;;;;4977337;28;20064;-68
2024/02/27 12:46:34;;;;;;;10.18;4.25;;;;;;;;;;4988528;28;20034;-67
2024/02/27 12:48:59;;;;;;;10.77;4.63;;;;;;;;;;4986525;28;20577;-69
2024/02/27 12:51:28;;;;;;;10.10;4.88;;;;;;;;;;4986986;28;20062;-69
2024/02/27 12:53:53;;;;;;;7.70;4.35;;;;;;;;;;4998569;28;20321;-68
2024/02/27 12:56:19;;;;;;;7.75;4.43;;;;;;;;;;4983787;28;20113;-70
2024/02/27 12:58:48;;;;;;;9.27;4.65;;;;;;;;;;4973829;28;20041;-69
2024/02/27 13:01:13;;;;;;;10.85;4.80;;;;;;;;;;4991688;28;20031;-69
2024/02/27 13:03:39;;;;;;;7.53;4.35;;;;;;;;;;4989050;28;20093;-70
2024/02/27 13:06:30;;;;;;;7.72;3.95;;;;;;;;;;4982304;28;20435;-70
2024/02/27 13:08:56;;;;;;;9.32;4.22;;;;;;;;;;4970956;28;20042;-70
2024/02/27 13:11:21;;;;;;;8.57;4.30;;;;;;;;;;4965598;28;20045;-68
2024/02/27 13:13:46;;;;;;;6.78;4.28;;;;;;;;;;4976568;28;20050;-69
2024/02/27 13:22:16;;;;;;;6.70;3.92;;;;;;;;;;4944121;28;20053;-71
2024/02/27 13:24:42;;;;;;;7.35;4.20;;;;;;;;;;4984829;28;20050;-69
2024/02/27 13:27:18;;;;;;;7.63;4.10;;;;;;;;;;4982081;28;20030;-70
2024/02/27 13:29:46;;;;;;;5.95;3.88;;;;;;;;;;4987821;28;20044;-69
2024/02/27 13:32:12;;;;;;;6.93;4.00;;;;;;;;;;4988737;28;20030;-70
2024/02/27 13:34:40;;;;;;;7.15;4.10;;;;;;;;;;4979012;28;20038;-70
2024/02/27 13:37:53;;;;;;;8.50;4.03;;;;;;;;;;4987110;28;20530;-71
2024/02/27 13:40:28;;;;;;;7.50;3.60;;;;;;;;;;4983592;28;20035;-73
2024/02/27 13:42:54;;;;;;;9.85;4.15;;;;;;;;;;4961510;28;20039;-68
2024/02/27 13:45:19;;;;;;;9.05;4.47;;;;;;;;;;4986947;28;20054;-64
2024/02/27 13:47:45;;;;;;;7.70;4.28;;;;;;;;;;4986241;28;20046;-69
2024/02/27 13:50:36;;;;;;;7.88;4.00;;;;;;;;;;4989222;28;20503;-70
2024/02/27 13:53:01;;;;;;;10.68;3.88;;;;;;;;;;4985772;28;20055;-71
2024/02/27 13:55:27;;;;;;;11.18;4.05;;;;;;;;;;4987170;28;20424;-68
2024/02/27 13:58:01;;;;;;;7.45;3.55;;;;;;;;;;4987705;28;20038;-69
2024/02/27 14:00:26;;;;;;;8.90;3.88;;;;;;;;;;4988410;28;20458;-68
2024/02/27 14:02:52;;;;;;;7.28;3.45;;;;;;;;;;4985300;28;20183;-68
2024/02/27 14:05:17;;;;;;;9.73;4.13;;;;;;;;;;4988254;28;20125;-68
2024/02/27 14:07:43;;;;;;;8.77;3.80;;;;;;;;;;4986034;28;20642;-68
2024/02/27 14:10:08;;;;;;;7.03;4.00;;;;;;;;;;4983025;28;20125;-69
2024/02/27 14:12:33;;;;;;;7.63;3.90;;;;;;;;;;4982301;28;20134;-69
2024/02/27 14:14:59;;;;;;;8.38;3.35;;;;;;;;;;4985601;28;20039;-67
2024/02/27 14:17:24;;;;;;;9.88;4.57;;;;;;;;;;4988303;28;20048;-68
2024/02/27 14:19:49;;;;;;;9.15;3.60;;;;;;;;;;4987979;28;20038;-69
2024/02/27 14:22:18;;;;;;;6.15;3.63;;;;;;;;;;4987984;28;20357;-67
2024/02/27 14:24:43;;;;;;;8.48;3.80;;;;;;;;;;4987944;28;20639;-67
2024/02/27 14:27:14;;;;;;;8.82;3.97;;;;;;;;;;4988179;28;20101;-66
2024/02/27 14:29:40;;;;;;;8.43;3.42;;;;;;;;;;4987379;28;20507;-67
2024/02/27 14:32:05;;;;;;;6.13;3.50;;;;;;;;;;4980097;28;20519;-68
2024/02/27 14:34:31;;;;;;;6.88;3.75;;;;;;;;;;4987511;28;20073;-67
2024/02/27 14:36:56;;;;;;;9.65;3.70;;;;;;;;;;4986313;28;20089;-66
2024/02/27 14:39:25;;;;;;;8.95;3.72;;;;;;;;;;4988990;28;20050;-67
2024/02/27 14:41:50;;;;;;;6.20;3.65;;;;;;;;;;4987122;28;20038;-67
2024/02/27 14:44:22;;;;;;;6.70;3.90;;;;;;;;;;4985801;28;20042;-67
2024/02/27 14:46:50;;;;;;;9.00;3.88;;;;;;;;;;4986270;28;20098;-67
2024/02/27 14:49:16;;;;;;;10.05;4.00;;;;;;;;;;4985403;28;20044;-66